Impacts TAF Board INFO
FOR SITUATIONAL AWARENESS. NOT TO BE USED FOR FLIGHT PLANNING PURPOSES.
IDs:

KEET - Alabaster/Shelby Cnt, AL, US

Issued at 0257 UTC 17 Jul 2018
Updated at 0337 UTC 17 Jul 2018
Potential Impact None Slight Moderate High
Time0334Z 17/04Z 17/05Z 17/06Z 17/07Z 17/08Z 17/09Z 17/10Z 17/11Z 17/12Z 17/13Z 17/14Z 17/15Z 17/16Z>>
Type OBS PRVL
  [TEMP]  
PRVL PRVL PRVL PRVL PRVL PRVL
  [TEMP]  
PRVL
  [TEMP]  
PRVL
  [TEMP]  
PRVL
  [TEMP]  
PRVL PRVL PRVL
VIS 10 >6
  [6]  
>6 >6 >6 4 4 4
  [2]  
4
  [2]  
4
  [2]  
4
  [2]  
4 4 >6
CIG 41 250
  [40]  
250 250 250 -- -- --
  [3]  
--
  [3]  
--
  [3]  
--
  [3]  
-- -- --
Cover OVC BKN
  [BKN]  
BKN BKN BKN SCT SCT SCT
  [BKN]  
SCT
  [BKN]  
SCT
  [BKN]  
SCT
  [BKN]  
SCT SCT SCT
FltCat VFR VFR
  [VFR]  
VFR VFR VFR MVFR MVFR MVFR
  [LIFR]  
MVFR
  [LIFR]  
MVFR
  [LIFR]  
MVFR
  [LIFR]  
MVFR MVFR VFR
WX TS VCTS
  [-TSRA]  
VCTS VCTS VCTS BR BR BR
  [BR]  
BR
  [BR]  
BR
  [BR]  
BR
  [BR]  
BR BR --
WDir 260 170
[170]
170 170 170 VRB VRB VRB
[VRB]
VRB
[VRB]
VRB
[VRB]
VRB
[VRB]
VRB VRB 260
WSpd 7 3
  [3]  
3 3 3 0 0 0
  [0]  
0
  [0]  
0
  [0]  
0
  [0]  
0 0 5
WGst -- --
  [--]  
-- -- -- -- -- --
  [--]  
--
  [--]  
--
  [--]  
--
  [--]  
-- -- --

Raw TAF
KEET 170257Z 1703/1724 17003KT P6SM VCTS FEW050CB SCT100 BKN250
  TEMPO 1703/1705 6SM -TSRA BKN040CB
  FM170800 00000KT 4SM BR SCT003
  TEMPO 1710/1714 2SM BR BKN003
  FM171600 26005KT P6SM SCT250
  PROB30 1719/1724 4SM TSRA BKN040CB


Raw METAR
KEET 170334Z AUTO 26007KT 210V310 10SM TS FEW012 BKN041 OVC055 25/23 A3005 RMK AO2 LTG DSNT W AND NW TSB28 T02500228
KEET 170323Z AUTO 23007KT 10SM VCTS SCT025 SCT035 BKN046 26/23 A3004 RMK AO2 LTG DSNT W AND NW T02560233
KEET 170314Z AUTO 23007KT 9SM VCTS FEW009 BKN023 BKN035 25/24 A3004 RMK AO2 LTG DSNT SW AND W T02500239
KEET 170305Z AUTO 00000KT 9SM VCTS SCT023 26/24 A3003 RMK AO2 LTG DSNT SW AND W T02560244
KEET 170253Z AUTO 00000KT 7SM CLR 25/24 A3003 RMK AO2 LTG DSNT SW AND W SLP163 T02500244 53015
KEET 170153Z AUTO 00000KT 10SM FEW110 26/24 A3003 RMK AO2 SLP161 T02610244
KEET 170053Z AUTO 00000KT 10SM CLR 26/24 A2999 RMK AO2 SLP149 T02610244

METAR Board
Radar Display
Forecast Discussion

FOR SITUATIONAL AWARENESS. NOT TO BE USED FOR FLIGHT PLANNING PURPOSES.